sensor_id;sensor_type;location;lat;lon;timestamp;temperature;humidity
15554;DHT22;7878;44.632;10.942;2022-10-24T00:00:28;20.00;99.90
15554;DHT22;7878;44.632;10.942;2022-10-24T00:02:54;20.00;99.90
15554;DHT22;7878;44.632;10.942;2022-10-24T00:05:20;20.00;99.90
15554;DHT22;7878;44.632;10.942;2022-10-24T00:07:48;20.00;99.90
15554;DHT22;7878;44.632;10.942;2022-10-24T00:10:14;20.10;99.90
15554;DHT22;7878;44.632;10.942;2022-10-24T00:12:39;20.00;99.90
15554;DHT22;7878;44.632;10.942;2022-10-24T00:15:08;20.00;99.90
15554;DHT22;7878;44.632;10.942;2022-10-24T00:17:34;20.00;99.90
15554;DHT22;7878;44.632;10.942;2022-10-24T00:20:00;20.00;99.90
15554;DHT22;7878;44.632;10.942;2022-10-24T00:22:26;20.00;99.90
15554;DHT22;7878;44.632;10.942;2022-10-24T00:24:52;20.00;99.90
15554;DHT22;7878;44.632;10.942;2022-10-24T00:27:18;20.00;99.90
15554;DHT22;7878;44.632;10.942;2022-10-24T00:29:43;20.00;99.90
15554;DHT22;7878;44.632;10.942;2022-10-24T00:32:09;20.00;99.90
15554;DHT22;7878;44.632;10.942;2022-10-24T00:34:36;20.00;99.90
15554;DHT22;7878;44.632;10.942;2022-10-24T00:37:03;20.00;99.90
15554;DHT22;7878;44.632;10.942;2022-10-24T00:39:29;19.90;99.90
15554;DHT22;7878;44.632;10.942;2022-10-24T00:41:54;19.90;99.90
15554;DHT22;7878;44.632;10.942;2022-10-24T00:44:28;19.80;99.90
15554;DHT22;7878;44.632;10.942;2022-10-24T00:47:24;19.80;99.90
15554;DHT22;7878;44.632;10.942;2022-10-24T00:49:57;19.80;99.90
15554;DHT22;7878;44.632;10.942;2022-10-24T00:52:36;19.70;99.90
15554;DHT22;7878;44.632;10.942;2022-10-24T00:55:04;19.70;99.90
15554;DHT22;7878;44.632;10.942;2022-10-24T00:57:39;19.70;99.90
15554;DHT22;7878;44.632;10.942;2022-10-24T01:00:09;19.70;99.90
15554;DHT22;7878;44.632;10.942;2022-10-24T01:02:38;19.70;99.90
15554;DHT22;7878;44.632;10.942;2022-10-24T01:05:05;19.70;99.90
15554;DHT22;7878;44.632;10.942;2022-10-24T01:16:10;19.80;99.90
15554;DHT22;7878;44.632;10.942;2022-10-24T01:18:41;19.70;99.90
15554;DHT22;7878;44.632;10.942;2022-10-24T01:32:35;19.80;99.90
15554;DHT22;7878;44.632;10.942;2022-10-24T01:37:38;19.70;99.90
15554;DHT22;7878;44.632;10.942;2022-10-24T01:40:21;19.70;99.90
15554;DHT22;7878;44.632;10.942;2022-10-24T01:42:49;19.70;99.90
15554;DHT22;7878;44.632;10.942;2022-10-24T01:45:22;19.70;99.90
15554;DHT22;7878;44.632;10.942;2022-10-24T01:47:53;19.70;99.90
15554;DHT22;7878;44.632;10.942;2022-10-24T01:50:21;19.70;99.90
15554;DHT22;7878;44.632;10.942;2022-10-24T01:52:48;19.70;99.90
15554;DHT22;7878;44.632;10.942;2022-10-24T01:55:15;19.70;99.90
15554;DHT22;7878;44.632;10.942;2022-10-24T01:57:41;19.70;99.90
15554;DHT22;7878;44.632;10.942;2022-10-24T02:00:10;19.70;99.90
15554;DHT22;7878;44.632;10.942;2022-10-24T02:02:42;19.70;99.90
15554;DHT22;7878;44.632;10.942;2022-10-24T02:07:41;19.70;99.90
15554;DHT22;7878;44.632;10.942;2022-10-24T02:10:30;19.70;99.90
15554;DHT22;7878;44.632;10.942;2022-10-24T02:13:04;19.70;99.90
15554;DHT22;7878;44.632;10.942;2022-10-24T02:15:39;19.70;99.90
15554;DHT22;7878;44.632;10.942;2022-10-24T02:18:07;19.70;99.90
15554;DHT22;7878;44.632;10.942;2022-10-24T02:20:43;19.70;99.90
15554;DHT22;7878;44.632;10.942;2022-10-24T02:23:28;19.70;99.90
15554;DHT22;7878;44.632;10.942;2022-10-24T02:26:00;19.70;99.90
15554;DHT22;7878;44.632;10.942;2022-10-24T02:28:31;19.70;99.90
15554;DHT22;7878;44.632;10.942;2022-10-24T02:31:13;19.70;99.90
15554;DHT22;7878;44.632;10.942;2022-10-24T02:33:43;19.80;99.90
15554;DHT22;7878;44.632;10.942;2022-10-24T02:36:13;19.70;99.90
15554;DHT22;7878;44.632;10.942;2022-10-24T02:38:42;19.70;99.90
15554;DHT22;7878;44.632;10.942;2022-10-24T02:41:14;19.80;99.90
15554;DHT22;7878;44.632;10.942;2022-10-24T02:43:41;19.70;99.90
15554;DHT22;7878;44.632;10.942;2022-10-24T02:46:09;19.70;99.90
15554;DHT22;7878;44.632;10.942;2022-10-24T02:48:41;19.70;99.90
15554;DHT22;7878;44.632;10.942;2022-10-24T02:51:08;19.70;99.90
15554;DHT22;7878;44.632;10.942;2022-10-24T02:53:35;19.70;99.90
15554;DHT22;7878;44.632;10.942;2022-10-24T02:56:01;19.60;99.90
15554;DHT22;7878;44.632;10.942;2022-10-24T02:58:27;19.70;99.90
15554;DHT22;7878;44.632;10.942;2022-10-24T03:00:53;19.70;99.90
15554;DHT22;7878;44.632;10.942;2022-10-24T03:03:18;19.70;99.90
15554;DHT22;7878;44.632;10.942;2022-10-24T03:05:44;19.70;99.90
15554;DHT22;7878;44.632;10.942;2022-10-24T03:08:11;19.60;99.90
15554;DHT22;7878;44.632;10.942;2022-10-24T03:10:37;19.60;99.90
15554;DHT22;7878;44.632;10.942;2022-10-24T03:13:03;19.70;99.90
15554;DHT22;7878;44.632;10.942;2022-10-24T03:15:29;19.60;99.90
15554;DHT22;7878;44.632;10.942;2022-10-24T03:17:54;19.60;99.90
15554;DHT22;7878;44.632;10.942;2022-10-24T03:20:20;19.60;99.90
15554;DHT22;7878;44.632;10.942;2022-10-24T03:22:46;19.60;99.90
15554;DHT22;7878;44.632;10.942;2022-10-24T03:25:11;19.60;99.90
15554;DHT22;7878;44.632;10.942;2022-10-24T03:27:37;19.60;99.90
15554;DHT22;7878;44.632;10.942;2022-10-24T03:30:03;19.50;99.90
15554;DHT22;7878;44.632;10.942;2022-10-24T03:32:29;19.60;99.90
15554;DHT22;7878;44.632;10.942;2022-10-24T03:34:55;19.60;99.90
15554;DHT22;7878;44.632;10.942;2022-10-24T03:37:21;19.60;99.90
15554;DHT22;7878;44.632;10.942;2022-10-24T03:39:47;19.50;99.90
15554;DHT22;7878;44.632;10.942;2022-10-24T03:42:13;19.40;99.90
15554;DHT22;7878;44.632;10.942;2022-10-24T03:44:39;19.40;99.90
15554;DHT22;7878;44.632;10.942;2022-10-24T03:47:05;19.40;99.90
15554;DHT22;7878;44.632;10.942;2022-10-24T03:49:31;19.40;99.90
15554;DHT22;7878;44.632;10.942;2022-10-24T03:51:57;19.40;99.90
15554;DHT22;7878;44.632;10.942;2022-10-24T03:54:22;19.40;99.90
15554;DHT22;7878;44.632;10.942;2022-10-24T03:56:48;19.40;99.90
15554;DHT22;7878;44.632;10.942;2022-10-24T03:59:14;19.40;99.90
15554;DHT22;7878;44.632;10.942;2022-10-24T04:01:40;19.40;99.90
15554;DHT22;7878;44.632;10.942;2022-10-24T04:04:06;19.40;99.90
15554;DHT22;7878;44.632;10.942;2022-10-24T04:06:32;19.50;99.90
15554;DHT22;7878;44.632;10.942;2022-10-24T04:08:57;19.40;99.90
15554;DHT22;7878;44.632;10.942;2022-10-24T04:11:24;19.40;99.90
15554;DHT22;7878;44.632;10.942;2022-10-24T04:13:50;19.40;99.90
15554;DHT22;7878;44.632;10.942;2022-10-24T04:16:17;19.40;99.90
15554;DHT22;7878;44.632;10.942;2022-10-24T04:18:43;19.50;99.90
15554;DHT22;7878;44.632;10.942;2022-10-24T04:21:09;19.50;99.90
15554;DHT22;7878;44.632;10.942;2022-10-24T04:23:35;19.50;99.90
15554;DHT22;7878;44.632;10.942;2022-10-24T04:26:06;19.50;99.90
15554;DHT22;7878;44.632;10.942;2022-10-24T04:28:32;19.60;99.90
15554;DHT22;7878;44.632;10.942;2022-10-24T04:30:58;19.60;99.90
15554;DHT22;7878;44.632;10.942;2022-10-24T04:33:24;19.60;99.90
15554;DHT22;7878;44.632;10.942;2022-10-24T04:35:50;19.50;99.90
15554;DHT22;7878;44.632;10.942;2022-10-24T04:38:17;19.60;99.90
15554;DHT22;7878;44.632;10.942;2022-10-24T04:40:51;19.60;99.90
15554;DHT22;7878;44.632;10.942;2022-10-24T04:43:18;19.60;99.90
15554;DHT22;7878;44.632;10.942;2022-10-24T04:45:44;19.50;99.90
15554;DHT22;7878;44.632;10.942;2022-10-24T04:48:11;19.50;99.90
15554;DHT22;7878;44.632;10.942;2022-10-24T04:50:39;19.50;99.90
15554;DHT22;7878;44.632;10.942;2022-10-24T04:53:04;19.50;99.90
15554;DHT22;7878;44.632;10.942;2022-10-24T04:55:30;19.50;99.90
15554;DHT22;7878;44.632;10.942;2022-10-24T04:57:56;19.50;99.90
15554;DHT22;7878;44.632;10.942;2022-10-24T05:00:21;19.50;99.90
15554;DHT22;7878;44.632;10.942;2022-10-24T05:02:47;19.40;99.90
15554;DHT22;7878;44.632;10.942;2022-10-24T05:05:13;19.40;99.90
15554;DHT22;7878;44.632;10.942;2022-10-24T05:07:38;19.40;99.90
15554;DHT22;7878;44.632;10.942;2022-10-24T05:10:05;19.50;99.90
15554;DHT22;7878;44.632;10.942;2022-10-24T05:12:30;19.50;99.90
15554;DHT22;7878;44.632;10.942;2022-10-24T05:14:56;19.50;99.90
15554;DHT22;7878;44.632;10.942;2022-10-24T05:17:22;19.50;99.90
15554;DHT22;7878;44.632;10.942;2022-10-24T05:19:49;19.50;99.90
15554;DHT22;7878;44.632;10.942;2022-10-24T05:22:14;19.50;99.90
15554;DHT22;7878;44.632;10.942;2022-10-24T05:24:40;19.50;99.90
15554;DHT22;7878;44.632;10.942;2022-10-24T05:27:06;19.50;99.90
15554;DHT22;7878;44.632;10.942;2022-10-24T05:29:32;19.50;99.90
15554;DHT22;7878;44.632;10.942;2022-10-24T05:31:57;19.50;99.90
15554;DHT22;7878;44.632;10.942;2022-10-24T05:34:23;19.50;99.90
15554;DHT22;7878;44.632;10.942;2022-10-24T05:36:49;19.50;99.90
15554;DHT22;7878;44.632;10.942;2022-10-24T05:39:15;19.50;99.90
15554;DHT22;7878;44.632;10.942;2022-10-24T05:41:40;19.50;99.90
15554;DHT22;7878;44.632;10.942;2022-10-24T05:44:06;19.40;99.90
15554;DHT22;7878;44.632;10.942;2022-10-24T05:46:31;19.50;99.90
15554;DHT22;7878;44.632;10.942;2022-10-24T05:48:57;19.50;99.90
15554;DHT22;7878;44.632;10.942;2022-10-24T05:51:23;19.40;99.90
15554;DHT22;7878;44.632;10.942;2022-10-24T05:53:48;19.40;99.90
15554;DHT22;7878;44.632;10.942;2022-10-24T05:56:14;19.40;99.90
15554;DHT22;7878;44.632;10.942;2022-10-24T05:58:40;19.40;99.90
15554;DHT22;7878;44.632;10.942;2022-10-24T06:01:05;19.30;99.90
15554;DHT22;7878;44.632;10.942;2022-10-24T06:03:31;19.30;99.90
15554;DHT22;7878;44.632;10.942;2022-10-24T06:05:57;19.20;99.90
15554;DHT22;7878;44.632;10.942;2022-10-24T06:08:22;19.30;99.90
15554;DHT22;7878;44.632;10.942;2022-10-24T06:10:49;19.30;99.90
15554;DHT22;7878;44.632;10.942;2022-10-24T06:13:16;19.40;99.90
15554;DHT22;7878;44.632;10.942;2022-10-24T06:15:42;19.40;99.90
15554;DHT22;7878;44.632;10.942;2022-10-24T06:18:08;19.40;99.90
15554;DHT22;7878;44.632;10.942;2022-10-24T06:20:34;19.40;99.90
15554;DHT22;7878;44.632;10.942;2022-10-24T06:23:00;19.40;99.90
15554;DHT22;7878;44.632;10.942;2022-10-24T06:25:26;19.30;99.90
15554;DHT22;7878;44.632;10.942;2022-10-24T06:27:52;19.20;99.90
15554;DHT22;7878;44.632;10.942;2022-10-24T06:30:17;19.30;99.90
15554;DHT22;7878;44.632;10.942;2022-10-24T06:32:43;19.30;99.90
15554;DHT22;7878;44.632;10.942;2022-10-24T06:35:09;19.30;99.90
15554;DHT22;7878;44.632;10.942;2022-10-24T06:37:38;19.30;99.90
15554;DHT22;7878;44.632;10.942;2022-10-24T06:40:04;19.30;99.90
15554;DHT22;7878;44.632;10.942;2022-10-24T06:42:30;19.40;99.90
15554;DHT22;7878;44.632;10.942;2022-10-24T06:44:55;19.40;99.90
15554;DHT22;7878;44.632;10.942;2022-10-24T06:47:21;19.40;99.90
15554;DHT22;7878;44.632;10.942;2022-10-24T06:49:46;19.40;99.90
15554;DHT22;7878;44.632;10.942;2022-10-24T06:52:12;19.30;99.90
15554;DHT22;7878;44.632;10.942;2022-10-24T06:54:38;19.20;99.90
15554;DHT22;7878;44.632;10.942;2022-10-24T06:57:05;19.20;99.90
15554;DHT22;7878;44.632;10.942;2022-10-24T06:59:31;19.20;99.90
15554;DHT22;7878;44.632;10.942;2022-10-24T07:01:57;19.20;99.90
15554;DHT22;7878;44.632;10.942;2022-10-24T07:04:23;19.30;99.90
15554;DHT22;7878;44.632;10.942;2022-10-24T07:06:49;19.30;99.90
15554;DHT22;7878;44.632;10.942;2022-10-24T07:09:15;19.30;99.90
15554;DHT22;7878;44.632;10.942;2022-10-24T07:11:42;19.30;99.90
15554;DHT22;7878;44.632;10.942;2022-10-24T07:14:08;19.20;99.90
15554;DHT22;7878;44.632;10.942;2022-10-24T07:16:34;19.30;99.90
15554;DHT22;7878;44.632;10.942;2022-10-24T07:19:00;19.40;99.90
15554;DHT22;7878;44.632;10.942;2022-10-24T07:21:28;19.40;99.90
15554;DHT22;7878;44.632;10.942;2022-10-24T07:23:55;19.40;99.90
15554;DHT22;7878;44.632;10.942;2022-10-24T07:26:23;19.40;99.90
15554;DHT22;7878;44.632;10.942;2022-10-24T07:28:52;19.40;99.90
15554;DHT22;7878;44.632;10.942;2022-10-24T07:31:21;19.50;99.90
15554;DHT22;7878;44.632;10.942;2022-10-24T07:33:47;19.50;99.90
15554;DHT22;7878;44.632;10.942;2022-10-24T07:36:17;19.40;99.90
15554;DHT22;7878;44.632;10.942;2022-10-24T07:38:45;19.40;99.90
15554;DHT22;7878;44.632;10.942;2022-10-24T07:41:10;19.40;99.90
15554;DHT22;7878;44.632;10.942;2022-10-24T07:43:36;19.40;99.90
15554;DHT22;7878;44.632;10.942;2022-10-24T07:46:09;19.50;99.90
15554;DHT22;7878;44.632;10.942;2022-10-24T07:48:35;19.40;99.90
15554;DHT22;7878;44.632;10.942;2022-10-24T07:51:06;19.40;99.90
15554;DHT22;7878;44.632;10.942;2022-10-24T07:53:32;19.40;99.90
15554;DHT22;7878;44.632;10.942;2022-10-24T07:55:58;19.40;99.90
15554;DHT22;7878;44.632;10.942;2022-10-24T07:58:25;19.50;99.90
15554;DHT22;7878;44.632;10.942;2022-10-24T08:00:51;19.60;99.90
15554;DHT22;7878;44.632;10.942;2022-10-24T08:03:16;19.60;99.90
15554;DHT22;7878;44.632;10.942;2022-10-24T08:05:42;19.60;99.90
15554;DHT22;7878;44.632;10.942;2022-10-24T08:08:08;19.50;99.90
15554;DHT22;7878;44.632;10.942;2022-10-24T08:10:34;19.50;99.90
15554;DHT22;7878;44.632;10.942;2022-10-24T08:13:00;19.50;99.90
15554;DHT22;7878;44.632;10.942;2022-10-24T08:15:25;19.50;99.90
15554;DHT22;7878;44.632;10.942;2022-10-24T08:17:53;19.50;99.90
15554;DHT22;7878;44.632;10.942;2022-10-24T08:20:19;19.40;99.90
15554;DHT22;7878;44.632;10.942;2022-10-24T08:22:45;19.40;99.90
15554;DHT22;7878;44.632;10.942;2022-10-24T08:25:11;19.40;99.90
15554;DHT22;7878;44.632;10.942;2022-10-24T08:27:39;19.40;99.90
15554;DHT22;7878;44.632;10.942;2022-10-24T08:30:06;19.40;99.90
15554;DHT22;7878;44.632;10.942;2022-10-24T08:32:33;19.50;99.90
15554;DHT22;7878;44.632;10.942;2022-10-24T08:34:58;19.50;99.90
15554;DHT22;7878;44.632;10.942;2022-10-24T08:37:24;19.50;99.90
15554;DHT22;7878;44.632;10.942;2022-10-24T08:39:50;19.40;99.90
15554;DHT22;7878;44.632;10.942;2022-10-24T08:42:20;19.40;99.90
15554;DHT22;7878;44.632;10.942;2022-10-24T08:44:46;19.30;99.90
15554;DHT22;7878;44.632;10.942;2022-10-24T08:50:25;19.30;99.90
15554;DHT22;7878;44.632;10.942;2022-10-24T08:53:13;19.40;99.90
15554;DHT22;7878;44.632;10.942;2022-10-24T08:55:52;19.50;99.90
15554;DHT22;7878;44.632;10.942;2022-10-24T08:58:37;19.50;99.90
15554;DHT22;7878;44.632;10.942;2022-10-24T09:01:11;19.50;99.90
15554;DHT22;7878;44.632;10.942;2022-10-24T09:03:46;19.40;99.90
15554;DHT22;7878;44.632;10.942;2022-10-24T09:06:21;19.40;99.90
15554;DHT22;7878;44.632;10.942;2022-10-24T09:13:55;19.50;99.90
15554;DHT22;7878;44.632;10.942;2022-10-24T09:16:22;19.50;99.90
15554;DHT22;7878;44.632;10.942;2022-10-24T09:18:51;19.50;99.90
15554;DHT22;7878;44.632;10.942;2022-10-24T09:21:18;19.60;99.90
15554;DHT22;7878;44.632;10.942;2022-10-24T09:23:44;19.60;99.90
15554;DHT22;7878;44.632;10.942;2022-10-24T09:26:22;19.70;99.90
15554;DHT22;7878;44.632;10.942;2022-10-24T09:28:48;19.80;99.90
15554;DHT22;7878;44.632;10.942;2022-10-24T09:31:19;20.00;99.90
15554;DHT22;7878;44.632;10.942;2022-10-24T09:33:48;20.10;99.90
15554;DHT22;7878;44.632;10.942;2022-10-24T09:36:16;20.10;99.90
15554;DHT22;7878;44.632;10.942;2022-10-24T09:38:44;20.20;99.90
15554;DHT22;7878;44.632;10.942;2022-10-24T09:41:29;20.20;99.90
15554;DHT22;7878;44.632;10.942;2022-10-24T09:44:01;20.30;99.90
15554;DHT22;7878;44.632;10.942;2022-10-24T09:46:38;20.30;99.90
15554;DHT22;7878;44.632;10.942;2022-10-24T09:51:46;20.50;99.90
15554;DHT22;7878;44.632;10.942;2022-10-24T10:04:45;20.50;99.90
15554;DHT22;7878;44.632;10.942;2022-10-24T10:07:18;20.50;99.90
15554;DHT22;7878;44.632;10.942;2022-10-24T10:09:59;20.50;99.90
15554;DHT22;7878;44.632;10.942;2022-10-24T10:12:38;20.40;99.90
15554;DHT22;7878;44.632;10.942;2022-10-24T10:17:57;20.40;99.90
15554;DHT22;7878;44.632;10.942;2022-10-24T10:20:38;20.40;99.90
15554;DHT22;7878;44.632;10.942;2022-10-24T10:23:30;20.40;99.90
15554;DHT22;7878;44.632;10.942;2022-10-24T10:26:41;20.30;99.90
15554;DHT22;7878;44.632;10.942;2022-10-24T10:32:05;20.40;99.90
15554;DHT22;7878;44.632;10.942;2022-10-24T10:34:42;20.40;99.90
15554;DHT22;7878;44.632;10.942;2022-10-24T10:42:39;20.40;99.90
15554;DHT22;7878;44.632;10.942;2022-10-24T10:50:37;20.40;99.90
15554;DHT22;7878;44.632;10.942;2022-10-24T10:53:35;20.30;99.90
15554;DHT22;7878;44.632;10.942;2022-10-24T10:58:58;20.40;99.90
15554;DHT22;7878;44.632;10.942;2022-10-24T11:04:42;20.40;99.90
15554;DHT22;7878;44.632;10.942;2022-10-24T11:07:44;20.40;99.90
15554;DHT22;7878;44.632;10.942;2022-10-24T11:10:18;20.40;99.90
15554;DHT22;7878;44.632;10.942;2022-10-24T11:12:45;20.40;99.90
15554;DHT22;7878;44.632;10.942;2022-10-24T11:15:22;20.50;99.90
15554;DHT22;7878;44.632;10.942;2022-10-24T11:17:57;20.50;99.90
15554;DHT22;7878;44.632;10.942;2022-10-24T11:20:27;20.50;99.90
15554;DHT22;7878;44.632;10.942;2022-10-24T11:23:11;20.60;99.90
15554;DHT22;7878;44.632;10.942;2022-10-24T11:25:51;20.60;99.90
15554;DHT22;7878;44.632;10.942;2022-10-24T11:31:41;20.70;99.90
15554;DHT22;7878;44.632;10.942;2022-10-24T11:36:57;20.70;99.90
15554;DHT22;7878;44.632;10.942;2022-10-24T11:39:29;20.80;99.90
15554;DHT22;7878;44.632;10.942;2022-10-24T11:45:05;20.80;99.90
15554;DHT22;7878;44.632;10.942;2022-10-24T11:47:58;20.90;99.90
15554;DHT22;7878;44.632;10.942;2022-10-24T11:50:34;20.90;99.90
15554;DHT22;7878;44.632;10.942;2022-10-24T11:56:00;21.00;99.90
15554;DHT22;7878;44.632;10.942;2022-10-24T11:58:28;21.00;99.90
15554;DHT22;7878;44.632;10.942;2022-10-24T12:11:51;21.00;99.90
15554;DHT22;7878;44.632;10.942;2022-10-24T12:19:45;21.50;99.90
15554;DHT22;7878;44.632;10.942;2022-10-24T12:22:20;21.60;99.90
15554;DHT22;7878;44.632;10.942;2022-10-24T12:24:48;21.60;99.90
15554;DHT22;7878;44.632;10.942;2022-10-24T12:27:51;21.70;99.90
15554;DHT22;7878;44.632;10.942;2022-10-24T12:30:19;21.80;99.90
15554;DHT22;7878;44.632;10.942;2022-10-24T12:32:48;21.70;99.90
15554;DHT22;7878;44.632;10.942;2022-10-24T12:37:59;21.60;99.90
15554;DHT22;7878;44.632;10.942;2022-10-24T12:45:58;21.50;99.90
15554;DHT22;7878;44.632;10.942;2022-10-24T12:51:01;21.40;99.90
15554;DHT22;7878;44.632;10.942;2022-10-24T12:53:34;21.50;99.90
15554;DHT22;7878;44.632;10.942;2022-10-24T12:56:06;21.40;99.90
15554;DHT22;7878;44.632;10.942;2022-10-24T12:58:36;21.40;99.90
15554;DHT22;7878;44.632;10.942;2022-10-24T13:01:08;21.40;99.90
15554;DHT22;7878;44.632;10.942;2022-10-24T13:12:08;21.20;99.90
15554;DHT22;7878;44.632;10.942;2022-10-24T13:20:18;21.20;99.90
15554;DHT22;7878;44.632;10.942;2022-10-24T13:22:44;21.20;99.90
15554;DHT22;7878;44.632;10.942;2022-10-24T13:25:34;21.20;99.90
15554;DHT22;7878;44.632;10.942;2022-10-24T13:30:46;21.20;99.90
15554;DHT22;7878;44.632;10.942;2022-10-24T13:36:25;21.30;99.90
15554;DHT22;7878;44.632;10.942;2022-10-24T13:41:47;21.40;99.90
15554;DHT22;7878;44.632;10.942;2022-10-24T13:44:43;21.50;99.90
15554;DHT22;7878;44.632;10.942;2022-10-24T13:50:03;21.50;99.90
15554;DHT22;7878;44.632;10.942;2022-10-24T13:52:46;21.50;99.90
15554;DHT22;7878;44.632;10.942;2022-10-24T13:55:34;21.50;99.90
15554;DHT22;7878;44.632;10.942;2022-10-24T14:00:33;21.50;99.90
15554;DHT22;7878;44.632;10.942;2022-10-24T14:03:03;21.50;99.90
15554;DHT22;7878;44.632;10.942;2022-10-24T14:05:37;21.50;99.90
15554;DHT22;7878;44.632;10.942;2022-10-24T14:08:06;21.50;99.90
15554;DHT22;7878;44.632;10.942;2022-10-24T14:10:32;21.50;99.90
15554;DHT22;7878;44.632;10.942;2022-10-24T14:12:58;21.50;99.90
15554;DHT22;7878;44.632;10.942;2022-10-24T14:15:27;21.50;99.90
15554;DHT22;7878;44.632;10.942;2022-10-24T14:18:00;21.50;99.90
15554;DHT22;7878;44.632;10.942;2022-10-24T14:20:32;21.50;99.90
15554;DHT22;7878;44.632;10.942;2022-10-24T14:22:59;21.50;99.90
15554;DHT22;7878;44.632;10.942;2022-10-24T14:25:27;21.50;99.90
15554;DHT22;7878;44.632;10.942;2022-10-24T14:27:55;21.60;99.90
15554;DHT22;7878;44.632;10.942;2022-10-24T14:30:24;21.60;99.90
15554;DHT22;7878;44.632;10.942;2022-10-24T14:33:24;21.70;99.90
15554;DHT22;7878;44.632;10.942;2022-10-24T14:35:51;21.70;99.90
15554;DHT22;7878;44.632;10.942;2022-10-24T14:38:18;21.70;99.90
15554;DHT22;7878;44.632;10.942;2022-10-24T14:40:45;21.70;99.90
15554;DHT22;7878;44.632;10.942;2022-10-24T14:43:15;21.70;99.90
15554;DHT22;7878;44.632;10.942;2022-10-24T14:45:42;21.70;99.90
15554;DHT22;7878;44.632;10.942;2022-10-24T14:48:28;21.70;99.90
15554;DHT22;7878;44.632;10.942;2022-10-24T14:51:01;21.70;99.90
15554;DHT22;7878;44.632;10.942;2022-10-24T14:53:27;21.70;99.90
15554;DHT22;7878;44.632;10.942;2022-10-24T14:55:55;21.70;99.90
15554;DHT22;7878;44.632;10.942;2022-10-24T14:58:24;21.70;99.90
15554;DHT22;7878;44.632;10.942;2022-10-24T15:00:52;21.70;99.90
15554;DHT22;7878;44.632;10.942;2022-10-24T15:03:19;21.70;99.90
15554;DHT22;7878;44.632;10.942;2022-10-24T15:06:09;21.70;99.90
15554;DHT22;7878;44.632;10.942;2022-10-24T15:08:38;21.60;99.90
15554;DHT22;7878;44.632;10.942;2022-10-24T15:11:21;21.60;99.90
15554;DHT22;7878;44.632;10.942;2022-10-24T15:13:51;21.60;99.90
15554;DHT22;7878;44.632;10.942;2022-10-24T15:16:21;21.50;99.90
15554;DHT22;7878;44.632;10.942;2022-10-24T15:18:50;21.60;99.90
15554;DHT22;7878;44.632;10.942;2022-10-24T15:21:20;21.60;99.90
15554;DHT22;7878;44.632;10.942;2022-10-24T15:23:58;21.60;99.90
15554;DHT22;7878;44.632;10.942;2022-10-24T15:31:30;21.60;99.90
15554;DHT22;7878;44.632;10.942;2022-10-24T15:33:56;21.50;99.90
15554;DHT22;7878;44.632;10.942;2022-10-24T15:36:36;21.50;99.90
15554;DHT22;7878;44.632;10.942;2022-10-24T15:39:06;21.50;99.90
15554;DHT22;7878;44.632;10.942;2022-10-24T15:41:37;21.40;99.90
15554;DHT22;7878;44.632;10.942;2022-10-24T15:44:24;21.40;99.90
15554;DHT22;7878;44.632;10.942;2022-10-24T15:46:51;21.40;99.90
15554;DHT22;7878;44.632;10.942;2022-10-24T15:49:17;21.30;99.90
15554;DHT22;7878;44.632;10.942;2022-10-24T15:51:44;21.30;99.90
15554;DHT22;7878;44.632;10.942;2022-10-24T15:54:11;21.30;99.90
15554;DHT22;7878;44.632;10.942;2022-10-24T15:56:38;21.30;99.90
15554;DHT22;7878;44.632;10.942;2022-10-24T15:59:03;21.30;99.90
15554;DHT22;7878;44.632;10.942;2022-10-24T16:01:31;21.20;99.90
15554;DHT22;7878;44.632;10.942;2022-10-24T16:03:58;21.20;99.90
15554;DHT22;7878;44.632;10.942;2022-10-24T16:06:25;21.20;99.90
15554;DHT22;7878;44.632;10.942;2022-10-24T16:08:51;21.20;99.90
15554;DHT22;7878;44.632;10.942;2022-10-24T16:11:17;21.20;99.90
15554;DHT22;7878;44.632;10.942;2022-10-24T16:13:43;21.20;99.90
15554;DHT22;7878;44.632;10.942;2022-10-24T16:16:08;21.20;99.90
15554;DHT22;7878;44.632;10.942;2022-10-24T16:18:34;21.10;99.90
15554;DHT22;7878;44.632;10.942;2022-10-24T16:21:00;21.10;99.90
15554;DHT22;7878;44.632;10.942;2022-10-24T16:23:26;21.10;99.90
15554;DHT22;7878;44.632;10.942;2022-10-24T16:25:52;21.10;99.90
15554;DHT22;7878;44.632;10.942;2022-10-24T16:28:18;21.10;99.90
15554;DHT22;7878;44.632;10.942;2022-10-24T16:30:45;21.00;99.90
15554;DHT22;7878;44.632;10.942;2022-10-24T16:33:11;21.00;99.90
15554;DHT22;7878;44.632;10.942;2022-10-24T16:35:38;21.00;99.90
15554;DHT22;7878;44.632;10.942;2022-10-24T16:38:06;21.00;99.90
15554;DHT22;7878;44.632;10.942;2022-10-24T16:40:38;21.00;99.90
15554;DHT22;7878;44.632;10.942;2022-10-24T16:43:04;21.00;99.90
15554;DHT22;7878;44.632;10.942;2022-10-24T16:45:31;20.90;99.90
15554;DHT22;7878;44.632;10.942;2022-10-24T16:47:57;20.90;99.90
15554;DHT22;7878;44.632;10.942;2022-10-24T16:50:25;20.90;99.90
15554;DHT22;7878;44.632;10.942;2022-10-24T16:53:02;20.90;99.90
15554;DHT22;7878;44.632;10.942;2022-10-24T16:55:29;20.90;99.90
15554;DHT22;7878;44.632;10.942;2022-10-24T16:57:56;20.90;99.90
15554;DHT22;7878;44.632;10.942;2022-10-24T17:00:22;20.90;99.90
15554;DHT22;7878;44.632;10.942;2022-10-24T17:02:49;20.90;99.90
15554;DHT22;7878;44.632;10.942;2022-10-24T17:05:17;20.90;99.90
15554;DHT22;7878;44.632;10.942;2022-10-24T17:07:44;20.90;99.90
15554;DHT22;7878;44.632;10.942;2022-10-24T17:10:11;20.90;99.90
15554;DHT22;7878;44.632;10.942;2022-10-24T17:12:37;20.80;99.90
15554;DHT22;7878;44.632;10.942;2022-10-24T17:15:05;20.80;99.90
15554;DHT22;7878;44.632;10.942;2022-10-24T17:17:30;20.80;99.90
15554;DHT22;7878;44.632;10.942;2022-10-24T17:19:58;20.80;99.90
15554;DHT22;7878;44.632;10.942;2022-10-24T17:22:24;20.80;99.90
15554;DHT22;7878;44.632;10.942;2022-10-24T17:24:50;20.80;99.90
15554;DHT22;7878;44.632;10.942;2022-10-24T17:27:16;20.70;99.90
15554;DHT22;7878;44.632;10.942;2022-10-24T17:29:43;20.70;99.90
15554;DHT22;7878;44.632;10.942;2022-10-24T17:32:11;20.70;99.90
15554;DHT22;7878;44.632;10.942;2022-10-24T17:34:37;20.60;99.90
15554;DHT22;7878;44.632;10.942;2022-10-24T17:42:32;20.70;99.90
15554;DHT22;7878;44.632;10.942;2022-10-24T17:44:58;20.60;99.90
15554;DHT22;7878;44.632;10.942;2022-10-24T17:47:24;20.60;99.90
15554;DHT22;7878;44.632;10.942;2022-10-24T17:49:50;20.60;99.90
15554;DHT22;7878;44.632;10.942;2022-10-24T17:52:22;20.70;99.90
15554;DHT22;7878;44.632;10.942;2022-10-24T17:54:48;20.70;99.90
15554;DHT22;7878;44.632;10.942;2022-10-24T17:57:15;20.60;99.90
15554;DHT22;7878;44.632;10.942;2022-10-24T17:59:41;20.70;99.90
15554;DHT22;7878;44.632;10.942;2022-10-24T18:02:14;20.60;99.90
15554;DHT22;7878;44.632;10.942;2022-10-24T18:04:39;20.60;99.90
15554;DHT22;7878;44.632;10.942;2022-10-24T18:07:07;20.50;99.90
15554;DHT22;7878;44.632;10.942;2022-10-24T18:09:33;20.50;99.90